Time;durP1;ratioP1;P1;durP2;ratioP2;P2;SDS_P1;SDS_P2;PMS_P1;PMS_P2;Temp;Humidity;BMP_temperature;BMP_pressure;BME280_temperature;BME280_humidity;BME280_pressure;Samples;Min_cycle;Max_cycle;Signal;HPM_P1;HPM_P2
2021/12/14 00:01:53;;;;;;;25.33;4.80;;;4.90;85.40;;;;;;5053430;28;20029;-68
2021/12/14 00:04:31;;;;;;;13.30;4.13;;;4.90;85.20;;;;;;5056714;28;20071;-68
2021/12/14 00:07:01;;;;;;;12.20;4.75;;;4.90;84.90;;;;;;5054230;28;20036;-67
2021/12/14 00:09:32;;;;;;;14.98;4.32;;;4.90;84.90;;;;;;5055416;28;20033;-67
2021/12/14 00:17:26;;;;;;;8.27;4.05;;;4.80;85.10;;;;;;5054323;28;20041;-67
2021/12/14 00:19:55;;;;;;;27.02;5.20;;;4.80;85.10;;;;;;5056236;28;20045;-67
2021/12/14 00:22:32;;;;;;;14.43;4.78;;;4.80;85.10;;;;;;5054373;28;20488;-67
2021/12/14 00:24:58;;;;;;;30.23;5.35;;;4.80;85.20;;;;;;5055102;28;20779;-68
2021/12/14 00:27:24;;;;;;;28.98;6.25;;;4.90;85.30;;;;;;5053601;28;20064;-67
2021/12/14 00:29:53;;;;;;;33.13;5.80;;;4.90;85.20;;;;;;5053340;28;20064;-67
2021/12/14 00:32:22;;;;;;;72.25;5.65;;;4.90;85.20;;;;;;5055567;28;20082;-67
2021/12/14 00:34:50;;;;;;;22.08;4.93;;;4.90;85.00;;;;;;5036666;28;20119;-67
2021/12/14 00:37:21;;;;;;;12.07;4.13;;;4.90;85.00;;;;;;5052782;28;20177;-67
2021/12/14 00:39:49;;;;;;;7.70;4.68;;;4.90;84.90;;;;;;5052753;28;20029;-68
2021/12/14 00:42:15;;;;;;;11.88;4.65;;;4.90;84.90;;;;;;5053580;28;20130;-67
2021/12/14 00:44:40;;;;;;;20.23;5.13;;;4.90;85.00;;;;;;5053208;28;20566;-68
2021/12/14 00:47:06;;;;;;;16.95;4.60;;;4.90;85.00;;;;;;5055060;28;20029;-67
2021/12/14 00:49:33;;;;;;;29.63;4.93;;;4.90;85.00;;;;;;5055942;28;20060;-68
2021/12/14 00:51:59;;;;;;;22.95;4.60;;;5.00;84.90;;;;;;5056226;28;20035;-68
2021/12/14 00:54:25;;;;;;;20.05;4.75;;;4.90;84.70;;;;;;5053134;28;20035;-67
2021/12/14 00:56:51;;;;;;;49.72;5.97;;;4.90;84.70;;;;;;5033931;28;20123;-67
2021/12/14 00:59:19;;;;;;;31.77;5.53;;;4.90;84.70;;;;;;5051609;28;20029;-68
2021/12/14 01:01:55;;;;;;;27.75;4.65;;;4.90;84.70;;;;;;5054053;28;20021;-67
2021/12/14 01:04:31;;;;;;;25.40;4.60;;;4.90;84.70;;;;;;5052808;28;20996;-67
2021/12/14 01:06:58;;;;;;;26.13;5.10;;;4.90;84.70;;;;;;5052228;28;20036;-68
2021/12/14 01:09:31;;;;;;;34.72;4.57;;;4.80;84.60;;;;;;5052328;28;20056;-67
2021/12/14 01:12:03;;;;;;;19.90;4.75;;;4.80;84.60;;;;;;5051383;28;20767;-68
2021/12/14 01:14:40;;;;;;;22.75;5.15;;;4.80;84.70;;;;;;5052937;28;20064;-68
2021/12/14 01:17:25;;;;;;;19.83;4.40;;;4.80;84.90;;;;;;5055870;28;20037;-67
2021/12/14 01:19:56;;;;;;;28.42;3.70;;;4.80;84.90;;;;;;5036368;28;20041;-68
2021/12/14 01:25:10;;;;;;;16.45;4.95;;;4.70;84.70;;;;;;5053651;28;20235;-67
2021/12/14 01:27:50;;;;;;;24.20;4.10;;;4.70;85.00;;;;;;5057116;28;20043;-67
2021/12/14 01:30:22;;;;;;;21.33;3.30;;;4.60;84.90;;;;;;5055313;28;20369;-67
2021/12/14 01:32:50;;;;;;;15.05;3.45;;;4.60;84.90;;;;;;5037431;28;20121;-68
2021/12/14 01:35:21;;;;;;;25.50;4.70;;;4.60;84.90;;;;;;5055782;28;20037;-68
2021/12/14 01:38:00;;;;;;;10.68;3.97;;;4.50;85.10;;;;;;5056063;28;20111;-68
2021/12/14 01:40:46;;;;;;;20.48;5.32;;;4.50;85.10;;;;;;5055296;28;20029;-68
2021/12/14 01:43:12;;;;;;;15.73;4.55;;;4.50;85.10;;;;;;5038154;28;20515;-68
2021/12/14 01:45:37;;;;;;;8.50;3.65;;;4.40;85.10;;;;;;5053720;28;20031;-68
2021/12/14 01:48:04;;;;;;;18.25;4.03;;;4.40;85.10;;;;;;5053612;28;20044;-67
2021/12/14 01:50:53;;;;;;;16.17;4.57;;;4.40;85.10;;;;;;5052878;28;20051;-68
2021/12/14 01:53:21;;;;;;;10.05;4.13;;;4.40;85.10;;;;;;5054302;28;20041;-67
2021/12/14 01:55:52;;;;;;;20.55;4.07;;;4.30;84.80;;;;;;5053589;28;20120;-67
2021/12/14 01:58:21;;;;;;;7.88;3.90;;;4.30;84.90;;;;;;5054241;28;20040;-67
2021/12/14 02:01:01;;;;;;;10.27;3.78;;;4.30;84.70;;;;;;5057604;28;20040;-67
2021/12/14 02:03:41;;;;;;;9.48;4.13;;;4.30;85.00;;;;;;5057403;28;20025;-67
2021/12/14 02:06:14;;;;;;;18.73;4.10;;;4.30;85.00;;;;;;5058478;28;20040;-67
2021/12/14 02:08:40;;;;;;;10.90;3.63;;;4.20;84.90;;;;;;5057009;28;20059;-68
2021/12/14 02:11:07;;;;;;;15.00;3.83;;;4.20;84.90;;;;;;5054497;28;20106;-67
2021/12/14 02:13:45;;;;;;;16.45;4.05;;;4.20;84.90;;;;;;5057524;28;20029;-67
2021/12/14 02:16:14;;;;;;;20.77;3.83;;;4.10;84.70;;;;;;5056018;28;20520;-68
2021/12/14 02:18:48;;;;;;;19.40;3.70;;;4.10;84.70;;;;;;5058785;28;20071;-67
2021/12/14 02:21:14;;;;;;;10.25;3.83;;;4.10;84.60;;;;;;5057499;28;20040;-68
2021/12/14 02:23:47;;;;;;;15.10;3.88;;;4.10;84.70;;;;;;5057538;28;20206;-68
2021/12/14 02:26:25;;;;;;;16.98;4.18;;;4.00;84.60;;;;;;5056718;28;20060;-68
2021/12/14 02:28:51;;;;;;;10.90;3.97;;;4.00;84.50;;;;;;5054412;28;20028;-67
2021/12/14 02:31:19;;;;;;;20.77;4.47;;;4.00;84.70;;;;;;5056130;28;20028;-67
2021/12/14 02:33:49;;;;;;;9.63;4.00;;;3.90;84.80;;;;;;5057876;28;20132;-68
2021/12/14 02:36:30;;;;;;;8.85;4.30;;;4.00;84.90;;;;;;5056808;28;20032;-67
2021/12/14 02:39:12;;;;;;;10.27;4.80;;;3.90;85.10;;;;;;5059357;28;20041;-67
2021/12/14 02:41:49;;;;;;;33.33;4.53;;;3.90;85.10;;;;;;5055702;28;20201;-67
2021/12/14 02:44:16;;;;;;;12.75;4.13;;;4.00;85.00;;;;;;5058359;28;20033;-67
2021/12/14 02:46:55;;;;;;;14.85;4.75;;;4.00;84.90;;;;;;5055028;28;20037;-68
2021/12/14 02:49:27;;;;;;;24.55;5.63;;;3.90;85.00;;;;;;5056997;28;20151;-67
2021/12/14 02:51:57;;;;;;;13.63;4.50;;;3.90;84.90;;;;;;5055720;28;20064;-68
2021/12/14 02:54:37;;;;;;;12.30;4.28;;;3.90;84.90;;;;;;5059004;28;20082;-67
2021/12/14 02:57:15;;;;;;;17.05;4.30;;;3.90;84.90;;;;;;5055382;28;20089;-67
2021/12/14 02:59:43;;;;;;;20.60;4.82;;;3.90;84.80;;;;;;5054981;28;20039;-68
2021/12/14 03:02:14;;;;;;;25.73;4.55;;;3.80;84.60;;;;;;5056535;28;20035;-67
2021/12/14 03:04:50;;;;;;;10.70;4.15;;;3.80;84.60;;;;;;5056069;28;20626;-68
2021/12/14 03:07:17;;;;;;;25.42;4.50;;;3.80;84.70;;;;;;5056302;28;20592;-67
2021/12/14 03:10:05;;;;;;;32.15;4.35;;;3.80;84.70;;;;;;5056194;28;20461;-67
2021/12/14 03:12:36;;;;;;;16.77;4.68;;;3.80;84.70;;;;;;5054157;28;20400;-67
2021/12/14 03:15:07;;;;;;;10.05;4.65;;;3.70;84.70;;;;;;5056155;28;20044;-67
2021/12/14 03:17:34;;;;;;;13.35;5.65;;;3.70;84.90;;;;;;5058109;28;20078;-67
2021/12/14 03:20:06;;;;;;;32.15;5.90;;;3.60;84.90;;;;;;5056756;28;20036;-68
2021/12/14 03:22:56;;;;;;;27.88;6.05;;;3.60;85.00;;;;;;5055690;28;20037;-68
2021/12/14 03:25:22;;;;;;;15.82;5.05;;;3.60;85.20;;;;;;5038897;28;20036;-68
2021/12/14 03:27:50;;;;;;;42.05;6.00;;;3.50;85.10;;;;;;5053597;28;20032;-67
2021/12/14 03:30:30;;;;;;;24.83;5.13;;;3.60;85.20;;;;;;5053270;28;20165;-67
2021/12/14 03:33:05;;;;;;;34.67;5.28;;;3.50;85.20;;;;;;5056964;28;20037;-67
2021/12/14 03:35:37;;;;;;;12.57;5.30;;;3.50;85.20;;;;;;5055350;28;20036;-67
2021/12/14 03:38:08;;;;;;;30.35;5.85;;;3.40;85.30;;;;;;5054843;28;20039;-67
2021/12/14 03:40:34;;;;;;;25.75;5.60;;;3.40;85.60;;;;;;5056801;28;20718;-68
2021/12/14 03:43:00;;;;;;;20.02;5.05;;;3.40;85.60;;;;;;5057300;28;20029;-67
2021/12/14 03:45:25;;;;;;;16.95;5.43;;;3.40;85.70;;;;;;5055469;28;20029;-67
2021/12/14 03:47:55;;;;;;;17.80;5.38;;;3.40;85.80;;;;;;5055627;28;20059;-68
2021/12/14 03:50:26;;;;;;;21.40;5.60;;;3.40;85.90;;;;;;5057715;28;20510;-67
2021/12/14 03:52:51;;;;;;;12.95;5.15;;;3.40;85.80;;;;;;5054337;28;20036;-65
2021/12/14 03:55:29;;;;;;;21.35;5.93;;;3.40;85.80;;;;;;5057284;28;20110;-67
2021/12/14 03:57:54;;;;;;;18.65;5.63;;;3.40;85.90;;;;;;5053555;28;20078;-67
2021/12/14 04:00:27;;;;;;;9.00;5.18;;;3.50;85.80;;;;;;5055904;28;20040;-67
2021/12/14 04:02:59;;;;;;;12.35;5.38;;;3.50;85.70;;;;;;5054999;28;20024;-67
2021/12/14 04:05:25;;;;;;;24.33;6.20;;;3.50;85.60;;;;;;5054811;28;20128;-68
2021/12/14 04:07:51;;;;;;;19.58;5.60;;;3.50;85.60;;;;;;5053994;28;20120;-68
2021/12/14 04:10:30;;;;;;;12.65;5.97;;;3.50;85.60;;;;;;5054918;28;20029;-67
2021/12/14 04:12:57;;;;;;;14.00;5.97;;;3.50;85.60;;;;;;5053067;28;20456;-67
2021/12/14 04:15:23;;;;;;;20.10;6.45;;;3.50;85.60;;;;;;5053616;28;21026;-67
2021/12/14 04:17:49;;;;;;;11.73;6.88;;;3.60;85.60;;;;;;5057627;28;20036;-67
2021/12/14 04:20:25;;;;;;;13.27;5.68;;;3.50;85.50;;;;;;5054550;28;20127;-68
2021/12/14 04:22:52;;;;;;;19.65;5.80;;;3.50;85.50;;;;;;5033764;28;20084;-67
2021/12/14 04:25:21;;;;;;;14.02;6.20;;;3.60;85.40;;;;;;5055647;28;20051;-68
2021/12/14 04:27:48;;;;;;;10.18;5.82;;;3.60;85.30;;;;;;5055145;28;20772;-67
2021/12/14 04:30:17;;;;;;;32.25;9.18;;;3.50;85.20;;;;;;5056764;28;20040;-67
2021/12/14 04:32:51;;;;;;;36.65;6.20;;;3.60;85.20;;;;;;5052445;28;20032;-67
2021/12/14 04:35:18;;;;;;;14.23;6.53;;;3.60;85.10;;;;;;5053006;28;20186;-67
2021/12/14 04:37:53;;;;;;;15.88;6.38;;;3.50;85.00;;;;;;5052870;28;20534;-67
2021/12/14 04:51:53;;;;;;;17.85;6.43;;;3.50;85.10;;;;;;5053105;28;20032;-68
2021/12/14 04:54:20;;;;;;;16.48;8.73;;;3.20;84.90;;;;;;5053944;28;20851;-67
2021/12/14 04:56:46;;;;;;;15.60;9.93;;;3.20;85.10;;;;;;5055420;28;20041;-68
2021/12/14 04:59:14;;;;;;;15.80;7.07;;;3.20;85.30;;;;;;5052045;28;20037;-68
2021/12/14 05:01:43;;;;;;;21.13;6.32;;;3.20;85.60;;;;;;5055325;28;20029;-67
2021/12/14 05:04:14;;;;;;;18.25;6.80;;;3.10;85.70;;;;;;5055348;28;20069;-68
2021/12/14 05:06:53;;;;;;;18.80;7.10;;;3.10;85.80;;;;;;5056001;28;20087;-67
2021/12/14 05:09:33;;;;;;;16.67;6.22;;;3.10;86.00;;;;;;5053310;28;20048;-67
2021/12/14 05:12:10;;;;;;;30.33;6.30;;;3.10;86.00;;;;;;5051801;28;20106;-67
2021/12/14 05:14:38;;;;;;;15.48;5.65;;;3.10;85.80;;;;;;5053235;28;20121;-67
2021/12/14 05:17:08;;;;;;;14.02;6.32;;;3.10;85.80;;;;;;5054249;28;20530;-67
2021/12/14 05:19:37;;;;;;;13.57;6.32;;;3.10;85.80;;;;;;5052352;28;20595;-67
2021/12/14 05:22:18;;;;;;;19.77;6.30;;;3.10;86.00;;;;;;5050345;28;21452;-67
2021/12/14 05:24:49;;;;;;;23.52;6.00;;;3.10;86.00;;;;;;5050756;28;20076;-68
2021/12/14 05:27:23;;;;;;;12.40;5.22;;;3.10;85.90;;;;;;5040523;28;20090;-67
2021/12/14 05:29:48;;;;;;;17.02;5.50;;;3.10;86.00;;;;;;5052395;28;20038;-67
2021/12/14 05:32:17;;;;;;;21.23;5.75;;;3.10;85.90;;;;;;5054438;28;20028;-68
2021/12/14 05:34:44;;;;;;;17.63;5.93;;;3.10;85.90;;;;;;5040859;28;20048;-67
2021/12/14 05:37:12;;;;;;;11.02;5.55;;;3.10;85.90;;;;;;5059311;28;20045;-66
2021/12/14 05:44:51;;;;;;;20.60;6.18;;;3.10;85.80;;;;;;5032229;28;22861;-69
2021/12/14 05:47:19;;;;;;;12.95;5.28;;;3.10;85.70;;;;;;5059029;28;20119;-68
2021/12/14 05:49:47;;;;;;;25.55;5.20;;;3.00;85.60;;;;;;5060117;28;20621;-66
2021/12/14 05:52:21;;;;;;;19.67;5.15;;;3.00;85.60;;;;;;5058693;28;20522;-66
2021/12/14 05:54:47;;;;;;;11.52;5.28;;;3.00;85.70;;;;;;5058507;28;20059;-67
2021/12/14 05:57:18;;;;;;;32.35;5.65;;;2.90;85.80;;;;;;5059400;28;20086;-67
2021/12/14 05:59:44;;;;;;;23.65;5.78;;;2.90;85.90;;;;;;5057946;28;21777;-67
2021/12/14 06:02:10;;;;;;;12.13;5.90;;;2.90;86.00;;;;;;5058146;28;20029;-67
2021/12/14 06:04:45;;;;;;;10.27;6.15;;;2.90;86.10;;;;;;5059450;28;20037;-66
2021/12/14 06:07:12;;;;;;;11.82;6.47;;;2.90;86.50;;;;;;5058422;28;20039;-67
2021/12/14 06:09:42;;;;;;;9.52;5.55;;;2.80;86.50;;;;;;5058783;28;20075;-67
2021/12/14 06:12:29;;;;;;;10.38;6.95;;;2.90;86.70;;;;;;5060942;28;20522;-68
2021/12/14 06:14:58;;;;;;;15.57;9.82;;;2.90;87.10;;;;;;5057579;28;20090;-67
2021/12/14 06:17:31;;;;;;;10.75;7.47;;;2.90;86.80;;;;;;5057532;28;20032;-68
2021/12/14 06:20:00;;;;;;;9.27;6.00;;;3.00;86.80;;;;;;5059056;28;20024;-67
2021/12/14 06:22:26;;;;;;;7.95;5.03;;;3.00;86.70;;;;;;5058932;28;20116;-67
2021/12/14 06:24:58;;;;;;;8.65;5.10;;;3.00;86.50;;;;;;5059591;28;20139;-66
2021/12/14 06:27:28;;;;;;;8.68;4.68;;;3.10;86.50;;;;;;5058538;28;20768;-67
2021/12/14 06:29:57;;;;;;;7.72;4.80;;;3.10;86.30;;;;;;5059034;28;20403;-67
2021/12/14 06:32:26;;;;;;;9.35;4.78;;;3.10;86.30;;;;;;5060256;28;20032;-67
2021/12/14 06:34:55;;;;;;;9.65;5.20;;;3.10;86.20;;;;;;5058784;28;20053;-65
2021/12/14 06:40:10;;;;;;;11.55;5.32;;;3.10;86.30;;;;;;5058809;28;20028;-67
2021/12/14 06:42:48;;;;;;;8.60;5.03;;;3.10;86.20;;;;;;5057594;28;20036;-67
2021/12/14 06:45:16;;;;;;;7.57;4.97;;;3.10;86.50;;;;;;5058985;28;20139;-63
2021/12/14 06:47:44;;;;;;;9.40;5.80;;;3.10;86.40;;;;;;5057504;28;20029;-67
2021/12/14 06:50:18;;;;;;;9.90;5.25;;;3.10;86.50;;;;;;5057671;28;20032;-68
2021/12/14 06:52:52;;;;;;;10.32;5.50;;;3.10;86.50;;;;;;5057642;28;20036;-67
2021/12/14 06:55:23;;;;;;;8.07;5.22;;;3.10;86.40;;;;;;5058048;28;20452;-67
2021/12/14 06:57:50;;;;;;;12.25;5.82;;;3.10;86.50;;;;;;5058501;28;20835;-68
2021/12/14 07:00:16;;;;;;;10.23;5.60;;;3.10;86.50;;;;;;5058012;28;20044;-67
2021/12/14 07:02:50;;;;;;;13.02;6.90;;;3.00;86.60;;;;;;5057590;28;20512;-67
2021/12/14 07:05:19;;;;;;;9.38;5.93;;;3.10;86.90;;;;;;5056883;28;20086;-67
2021/12/14 07:07:45;;;;;;;9.15;5.05;;;3.10;86.90;;;;;;5056068;28;20037;-67
2021/12/14 07:10:11;;;;;;;9.77;5.53;;;3.10;86.90;;;;;;5058880;28;20110;-66
2021/12/14 07:12:38;;;;;;;9.52;5.55;;;3.10;86.90;;;;;;5056189;28;20123;-66
2021/12/14 07:15:23;;;;;;;8.23;5.20;;;3.20;86.80;;;;;;5057253;28;20040;-67
2021/12/14 07:18:00;;;;;;;9.20;5.65;;;3.20;86.80;;;;;;5056292;28;20056;-66
2021/12/14 07:20:40;;;;;;;10.07;5.88;;;3.30;86.60;;;;;;5036549;28;20516;-68
2021/12/14 07:23:32;;;;;;;16.58;5.82;;;3.30;86.70;;;;;;5057983;28;20036;-68
2021/12/14 07:26:06;;;;;;;11.48;5.55;;;3.30;86.70;;;;;;5056757;28;20033;-67
2021/12/14 07:28:44;;;;;;;10.57;5.95;;;3.30;86.50;;;;;;5056296;28;20068;-67
2021/12/14 07:31:17;;;;;;;11.68;6.65;;;3.30;87.30;;;;;;5057843;28;20028;-66
2021/12/14 07:33:59;;;;;;;9.60;5.72;;;3.40;86.50;;;;;;5059552;28;20551;-67
2021/12/14 07:36:30;;;;;;;23.23;12.43;;;3.30;86.40;;;;;;5057786;28;20056;-68
2021/12/14 07:39:01;;;;;;;35.17;19.50;;;3.40;86.50;;;;;;5056750;28;20057;-67
2021/12/14 07:41:49;;;;;;;24.95;12.45;;;3.40;86.50;;;;;;5057449;28;20024;-66
2021/12/14 07:44:22;;;;;;;13.85;7.78;;;3.50;86.50;;;;;;5056912;28;20036;-67
2021/12/14 07:47:08;;;;;;;12.88;8.02;;;3.50;86.30;;;;;;5058476;28;20044;-67
2021/12/14 07:49:41;;;;;;;17.13;10.30;;;3.50;86.20;;;;;;5056306;28;20033;-66
2021/12/14 07:52:09;;;;;;;20.42;11.75;;;3.50;86.10;;;;;;5056456;28;20040;-68
2021/12/14 07:54:43;;;;;;;15.27;8.75;;;3.50;86.30;;;;;;5055485;28;20032;-67
2021/12/14 07:57:11;;;;;;;13.20;7.32;;;3.50;86.30;;;;;;5058115;28;20079;-67
2021/12/14 07:59:44;;;;;;;9.73;6.05;;;3.50;86.30;;;;;;5057969;28;20029;-67
2021/12/14 08:02:14;;;;;;;7.43;4.70;;;3.50;86.40;;;;;;5057023;28;20602;-67
2021/12/14 08:04:44;;;;;;;8.35;5.43;;;3.50;86.30;;;;;;5056814;28;20043;-67
2021/12/14 08:07:23;;;;;;;7.90;5.07;;;3.50;86.30;;;;;;5057251;28;20503;-67
2021/12/14 08:09:51;;;;;;;6.50;4.50;;;3.60;86.40;;;;;;5056692;28;20029;-67
2021/12/14 08:12:38;;;;;;;8.05;4.53;;;3.60;86.30;;;;;;5055453;28;20036;-67
2021/12/14 08:15:18;;;;;;;6.00;4.35;;;3.60;86.40;;;;;;5055493;28;20055;-67
2021/12/14 08:17:47;;;;;;;6.60;4.57;;;3.60;86.30;;;;;;5057919;28;20032;-67
2021/12/14 08:20:21;;;;;;;6.93;4.38;;;3.60;86.20;;;;;;5039169;28;20037;-66
2021/12/14 08:22:47;;;;;;;3.92;2.88;;;3.70;86.30;;;;;;5054135;28;20037;-67
2021/12/14 08:25:21;;;;;;;6.63;4.25;;;3.70;86.20;;;;;;5057083;28;20613;-68
2021/12/14 08:27:55;;;;;;;7.72;5.38;;;3.70;86.20;;;;;;5056276;28;20024;-67
2021/12/14 08:30:21;;;;;;;6.47;4.60;;;3.70;86.10;;;;;;5056951;28;20044;-67
2021/12/14 08:32:48;;;;;;;8.70;5.47;;;3.70;85.90;;;;;;5057762;28;20040;-67
2021/12/14 08:35:14;;;;;;;10.88;5.43;;;3.70;86.00;;;;;;5055795;28;20246;-66
2021/12/14 08:37:51;;;;;;;7.00;4.75;;;3.70;86.10;;;;;;5057542;28;20032;-67
2021/12/14 08:40:24;;;;;;;7.93;4.90;;;3.70;86.30;;;;;;5057093;28;20412;-67
2021/12/14 08:43:09;;;;;;;7.85;4.57;;;3.70;86.40;;;;;;5055026;28;20206;-67
2021/12/14 08:45:55;;;;;;;6.95;4.45;;;3.70;86.50;;;;;;5054929;28;20036;-68
2021/12/14 08:48:26;;;;;;;6.85;4.53;;;3.80;86.80;;;;;;5055544;28;20104;-67
2021/12/14 08:51:00;;;;;;;7.65;4.78;;;3.80;86.60;;;;;;5056026;28;20059;-66
2021/12/14 08:53:31;;;;;;;7.15;4.82;;;3.80;86.70;;;;;;5055995;28;20410;-67
2021/12/14 08:55:59;;;;;;;7.95;4.88;;;3.80;86.70;;;;;;5056439;28;20078;-67
2021/12/14 08:58:27;;;;;;;7.22;4.75;;;3.90;86.70;;;;;;5055901;28;20408;-67
2021/12/14 09:01:07;;;;;;;7.80;5.53;;;3.90;86.70;;;;;;5055322;28;20040;-67
2021/12/14 09:03:39;;;;;;;6.72;4.80;;;3.90;86.90;;;;;;5053976;28;20418;-67
2021/12/14 09:06:16;;;;;;;8.15;5.05;;;4.00;87.00;;;;;;5059819;28;20853;-67
2021/12/14 09:08:44;;;;;;;7.75;4.70;;;4.00;87.80;;;;;;5062064;28;20090;-67
2021/12/14 09:11:14;;;;;;;7.45;4.93;;;4.10;87.00;;;;;;5064565;28;20036;-66
2021/12/14 09:13:41;;;;;;;7.47;5.05;;;4.10;87.10;;;;;;5063953;28;20029;-67
2021/12/14 09:16:13;;;;;;;7.93;5.15;;;4.20;87.20;;;;;;5063727;28;20028;-67
2021/12/14 09:18:43;;;;;;;7.18;4.72;;;4.20;87.00;;;;;;5062457;28;20043;-67
2021/12/14 09:21:28;;;;;;;8.52;5.20;;;4.30;87.00;;;;;;5063052;28;20131;-67
2021/12/14 09:23:58;;;;;;;7.10;4.78;;;4.30;87.00;;;;;;5063217;28;20522;-67
2021/12/14 09:26:27;;;;;;;7.03;4.88;;;4.40;86.70;;;;;;5062875;28;20028;-67
2021/12/14 09:28:53;;;;;;;7.55;5.13;;;4.40;86.50;;;;;;5062060;28;20463;-67
2021/12/14 09:31:26;;;;;;;5.88;4.28;;;4.40;86.50;;;;;;5061637;28;20086;-67
2021/12/14 09:33:57;;;;;;;9.20;4.90;;;4.40;86.40;;;;;;5045376;28;20041;-68
2021/12/14 09:36:23;;;;;;;7.90;4.63;;;4.50;86.40;;;;;;5061853;28;20112;-65
2021/12/14 09:39:13;;;;;;;7.15;4.88;;;4.50;86.30;;;;;;5045998;28;20059;-67
2021/12/14 09:41:42;;;;;;;6.50;4.30;;;4.60;87.50;;;;;;5063425;28;20036;-67
2021/12/14 09:44:10;;;;;;;5.78;4.13;;;4.60;86.50;;;;;;5062038;28;20068;-68
2021/12/14 09:46:37;;;;;;;7.07;4.63;;;4.60;86.60;;;;;;5061120;28;20055;-67
2021/12/14 09:49:06;;;;;;;10.35;6.50;;;4.70;86.70;;;;;;5062979;28;20404;-67
2021/12/14 09:51:37;;;;;;;8.18;5.50;;;4.70;86.70;;;;;;5061587;28;20128;-69
2021/12/14 09:54:06;;;;;;;8.77;5.88;;;4.80;86.60;;;;;;5062881;28;20151;-66
2021/12/14 09:56:39;;;;;;;10.27;6.55;;;4.80;86.50;;;;;;5061865;28;20056;-67
2021/12/14 09:59:08;;;;;;;12.32;7.75;;;4.80;86.30;;;;;;5064459;28;20032;-67
2021/12/14 10:01:43;;;;;;;14.38;6.20;;;4.90;86.20;;;;;;5063342;28;20922;-66
2021/12/14 10:04:18;;;;;;;8.60;4.90;;;4.90;86.20;;;;;;5062625;28;20408;-67
2021/12/14 10:06:44;;;;;;;7.68;5.30;;;4.90;86.10;;;;;;5061829;28;20033;-67
2021/12/14 10:09:14;;;;;;;7.95;5.10;;;4.90;85.90;;;;;;5062019;28;20033;-68
2021/12/14 10:14:27;;;;;;;6.68;4.43;;;4.90;85.80;;;;;;5063213;28;20025;-68
2021/12/14 10:16:53;;;;;;;6.78;4.78;;;4.90;85.80;;;;;;5062521;28;20071;-68
2021/12/14 10:19:23;;;;;;;6.65;4.57;;;4.90;86.00;;;;;;5060480;28;20579;-67
2021/12/14 10:21:54;;;;;;;7.32;5.22;;;4.90;86.00;;;;;;5060197;28;20553;-67
2021/12/14 10:24:20;;;;;;;8.25;5.20;;;4.90;86.10;;;;;;5048758;28;20025;-67
2021/12/14 10:26:50;;;;;;;7.30;5.28;;;5.00;86.20;;;;;;5058996;28;20056;-67
2021/12/14 10:29:17;;;;;;;7.82;5.63;;;5.00;86.20;;;;;;5059657;28;20466;-67
2021/12/14 10:31:58;;;;;;;8.60;5.40;;;5.00;86.10;;;;;;5057797;28;20171;-67
2021/12/14 10:34:26;;;;;;;7.97;5.40;;;5.00;86.30;;;;;;5061131;28;20508;-67
2021/12/14 10:37:03;;;;;;;8.20;5.43;;;5.10;86.30;;;;;;5059548;28;20044;-67
2021/12/14 10:44:50;;;;;;;6.88;4.57;;;5.20;86.40;;;;;;5058703;28;20035;-68
2021/12/14 10:47:18;;;;;;;8.75;5.20;;;5.20;86.30;;;;;;5058618;28;20500;-67
2021/12/14 10:49:44;;;;;;;8.10;4.88;;;5.20;86.30;;;;;;5041377;28;20069;-68
2021/12/14 10:52:16;;;;;;;9.02;4.50;;;5.30;86.30;;;;;;5059236;28;20071;-68
2021/12/14 10:54:45;;;;;;;7.90;5.65;;;5.40;86.30;;;;;;5058310;28;20304;-68
2021/12/14 10:57:17;;;;;;;7.72;5.30;;;5.40;86.20;;;;;;5059098;28;20037;-65
2021/12/14 10:59:48;;;;;;;9.82;6.72;;;5.40;86.10;;;;;;5057411;28;20115;-66
2021/12/14 11:02:14;;;;;;;8.80;5.88;;;5.40;86.00;;;;;;5056744;28;20959;-67
2021/12/14 11:04:51;;;;;;;9.93;5.88;;;5.50;86.10;;;;;;5057252;28;20565;-68
2021/12/14 11:07:42;;;;;;;8.38;5.43;;;5.50;86.10;;;;;;5056702;28;20147;-67
2021/12/14 11:10:20;;;;;;;7.88;5.35;;;5.50;86.00;;;;;;5058404;28;20454;-67
2021/12/14 11:12:49;;;;;;;8.95;5.75;;;5.60;85.80;;;;;;5057829;28;20028;-68
2021/12/14 11:15:30;;;;;;;9.38;6.15;;;5.60;85.80;;;;;;5059884;28;20397;-67
2021/12/14 11:18:11;;;;;;;7.68;5.40;;;5.60;85.60;;;;;;5046033;28;20590;-67
2021/12/14 11:21:20;;;;;;;7.60;5.15;;;5.60;85.40;;;;;;5058075;28;20040;-68
2021/12/14 11:23:49;;;;;;;7.65;5.35;;;5.60;85.30;;;;;;4946958;29;20027;-67
2021/12/14 11:26:27;;;;;;;9.93;5.90;;;5.70;85.20;;;;;;4945691;28;20061;-67
2021/12/14 11:29:09;;;;;;;9.27;6.00;;;5.70;85.10;;;;;;5006395;28;20028;-68
2021/12/14 11:31:55;;;;;;;9.30;5.88;;;5.70;86.00;;;;;;5057994;28;20089;-68
2021/12/14 11:34:31;;;;;;;;;;;5.70;85.20;;;;;;5060258;28;20613;-68
2021/12/14 11:37:04;;;;;;;7.85;4.72;;;5.70;85.30;;;;;;5058447;28;20614;-68
2021/12/14 11:39:57;;;;;;;7.28;4.90;;;5.70;85.20;;;;;;5058388;28;20028;-68
2021/12/14 11:42:24;;;;;;;11.25;5.97;;;5.70;85.30;;;;;;5053893;28;20044;-68
2021/12/14 11:45:07;;;;;;;8.52;5.82;;;5.80;85.30;;;;;;5043867;28;20039;-68
2021/12/14 11:50:10;;;;;;;17.55;9.88;;;5.80;85.60;;;;;;5058579;28;20123;-68
2021/12/14 11:52:54;;;;;;;13.25;8.13;;;5.80;86.50;;;;;;5056897;28;20029;-68
2021/12/14 11:55:32;;;;;;;9.17;6.10;;;5.90;85.70;;;;;;5059221;28;20035;-68
2021/12/14 11:58:06;;;;;;;11.02;6.90;;;5.90;85.60;;;;;;5057503;28;20514;-68
2021/12/14 12:00:35;;;;;;;13.07;7.45;;;5.90;85.60;;;;;;5055994;28;20045;-68
2021/12/14 12:03:19;;;;;;;11.48;7.18;;;6.00;85.60;;;;;;5057256;28;20024;-68
2021/12/14 12:06:05;;;;;;;11.63;7.35;;;6.00;85.40;;;;;;5057247;28;20025;-68
2021/12/14 12:11:18;;;;;;;10.25;6.30;;;6.00;85.10;;;;;;5057073;28;20055;-68
2021/12/14 12:13:44;;;;;;;9.73;6.13;;;6.00;85.00;;;;;;5058787;28;20051;-68
2021/12/14 12:16:23;;;;;;;9.88;6.45;;;6.00;85.30;;;;;;5057860;28;20040;-67
2021/12/14 12:19:14;;;;;;;17.10;10.82;;;6.00;85.30;;;;;;5054368;28;20036;-67
2021/12/14 12:21:42;;;;;;;15.13;10.00;;;6.10;85.60;;;;;;5057273;28;20047;-68
2021/12/14 12:24:30;;;;;;;11.55;7.90;;;6.10;86.30;;;;;;5060494;28;20033;-68
2021/12/14 12:27:14;;;;;;;11.13;7.20;;;6.10;85.30;;;;;;5056451;28;20033;-68
2021/12/14 12:29:40;;;;;;;9.00;6.22;;;6.20;85.20;;;;;;5055212;28;20381;-68
2021/12/14 12:32:16;;;;;;;11.70;7.85;;;6.20;85.10;;;;;;5057660;28;20087;-67
2021/12/14 12:34:43;;;;;;;12.88;7.28;;;6.20;84.90;;;;;;5057715;28;20029;-68
2021/12/14 12:37:11;;;;;;;10.98;7.28;;;6.20;84.90;;;;;;5057263;28;20048;-68
2021/12/14 12:39:38;;;;;;;11.15;6.80;;;6.20;84.90;;;;;;5057105;28;20037;-68
2021/12/14 12:42:05;;;;;;;10.57;6.68;;;6.20;84.90;;;;;;5055770;28;20036;-68
2021/12/14 12:44:40;;;;;;;10.43;6.80;;;6.30;84.90;;;;;;5056350;28;20640;-68
2021/12/14 12:47:06;;;;;;;11.50;7.22;;;6.30;84.90;;;;;;5056497;28;20033;-67
2021/12/14 12:49:35;;;;;;;11.40;7.45;;;6.30;84.90;;;;;;5058063;28;20049;-67
2021/12/14 12:52:14;;;;;;;9.95;6.68;;;6.30;84.90;;;;;;5057380;28;20241;-66
2021/12/14 12:55:17;;;;;;;10.82;7.25;;;6.30;84.90;;;;;;5057138;28;20150;-68
2021/12/14 12:57:59;;;;;;;10.98;6.95;;;6.30;85.10;;;;;;5054713;28;20033;-68
2021/12/14 13:00:42;;;;;;;11.68;7.40;;;6.30;85.10;;;;;;5055880;28;20048;-68
2021/12/14 13:03:13;;;;;;;12.02;7.82;;;6.30;85.10;;;;;;5057697;28;20037;-68
2021/12/14 13:05:50;;;;;;;11.15;7.72;;;6.30;84.90;;;;;;5057138;28;20029;-66
2021/12/14 13:08:24;;;;;;;12.88;8.02;;;6.30;84.90;;;;;;5055961;28;20044;-68
2021/12/14 13:10:58;;;;;;;13.00;7.47;;;6.30;84.90;;;;;;5056707;28;20035;-67
2021/12/14 13:13:28;;;;;;;11.90;7.55;;;6.30;84.90;;;;;;5057115;28;20043;-68
2021/12/14 13:16:07;;;;;;;11.75;7.70;;;6.30;84.90;;;;;;5055966;28;20033;-68
2021/12/14 13:18:43;;;;;;;13.90;8.75;;;6.30;84.90;;;;;;5056269;28;20035;-67
2021/12/14 13:21:09;;;;;;;12.00;7.43;;;6.30;84.70;;;;;;5055198;28;20055;-68
2021/12/14 13:23:41;;;;;;;14.27;8.50;;;6.20;84.40;;;;;;5056091;28;20442;-67
2021/12/14 13:26:25;;;;;;;16.77;9.68;;;6.20;84.40;;;;;;5042535;28;20505;-68
2021/12/14 13:28:53;;;;;;;13.07;7.97;;;6.10;84.40;;;;;;5055734;28;20035;-67
2021/12/14 13:31:28;;;;;;;12.32;7.72;;;6.10;84.60;;;;;;5055504;28;20029;-68
2021/12/14 13:33:54;;;;;;;14.65;8.27;;;6.00;84.40;;;;;;5056894;28;20408;-68
2021/12/14 13:36:20;;;;;;;13.20;8.52;;;6.00;84.40;;;;;;5056516;28;20045;-68
2021/12/14 13:38:46;;;;;;;14.25;8.98;;;5.90;84.40;;;;;;5056984;28;20038;-67
2021/12/14 13:41:27;;;;;;;14.95;8.40;;;5.90;84.60;;;;;;5056975;28;20040;-68
2021/12/14 13:43:53;;;;;;;13.63;8.20;;;5.80;84.90;;;;;;5056818;28;20550;-68
2021/12/14 13:46:19;;;;;;;12.23;8.25;;;5.80;85.80;;;;;;5055598;28;20129;-68
2021/12/14 13:48:45;;;;;;;11.32;7.85;;;5.70;84.80;;;;;;5056291;28;20032;-67
2021/12/14 13:51:16;;;;;;;12.32;8.20;;;5.70;84.90;;;;;;5055990;28;20479;-67
2021/12/14 13:53:45;;;;;;;13.98;8.45;;;5.60;84.90;;;;;;5061017;28;20063;-68
2021/12/14 13:56:17;;;;;;;12.45;7.75;;;5.60;84.90;;;;;;5060205;28;20037;-68
2021/12/14 13:58:42;;;;;;;12.23;8.07;;;5.60;85.00;;;;;;5057674;28;20052;-67